Terminal Aerodrome Forecast
Issued by NWS Dodge City, KS

Home | Current Version | Previous Version | Text Only | Print | Product List | Glossary On
Versions: 1 2 3 4 5 6 7 8 9 10 11 12 13 14 15
000
FTUS43 KDDC 290532
TAFDDC
TAF
KDDC 290532Z 2906/3006 06012G21KT P6SM -TSRA OVC040CB
     FM290700 06013G23KT P6SM TSRA OVC025CB
     FM290800 06013G24KT P6SM TSRA OVC009CB
     FM291200 07013KT 5SM SHRA OVC003
     FM292300 03013KT 3SM SHRA OVC003=

USA.gov is the U.S. government's official web portal to all federal, state and local government web resources and services.